| time (UTC) | temp F | wind direction | speed MPH | gust MPH | rain 1hr in | rain 24hr in | rain mn in | humidity % | barometer mb |
| 20260509200812 | 52 | 227 | 0.0 | 1.0 | 0.00 | 0.00 | 0.00 | 81 | 1018.2 |
| 20260509195311 | 53 | 224 | 0.0 | 1.0 | 0.00 | 0.00 | 0.00 | 79 | 1018.3 |
| 20260509193809 | 54 | 177 | 1.0 | 1.0 | 0.00 | 0.00 | 0.00 | 78 | 1018.6 |
| 20260509192307 | 54 | 209 | 1.0 | 1.0 | 0.00 | 0.00 | 0.00 | 79 | 1018.8 |
| 20260509190806 | 54 | 230 | 0.0 | 0.0 | 0.00 | 0.00 | 0.00 | 79 | 1018.7 |
| 20260509185306 | 54 | 233 | 0.0 | 0.0 | 0.00 | 0.00 | 0.00 | 78 | 1018.7 |
| 20260509183759 | 55 | 228 | 1.0 | 1.0 | 0.00 | 0.00 | 0.00 | 76 | 1019.0 |
| 20260509182259 | 55 | 194 | 1.0 | 1.0 | 0.00 | 0.00 | 0.00 | 78 | 1018.6 |
| 20260509180758 | 55 | 222 | 0.0 | 1.0 | 0.00 | 0.00 | 0.00 | 76 | 1018.6 |
| 20260509175252 | 54 | 174 | 1.0 | 1.0 | 0.00 | 0.00 | 0.00 | 82 | 1018.6 |
| 20260509173752 | 54 | 222 | 1.0 | 1.0 | 0.00 | 0.00 | 0.00 | 80 | 1018.3 |
| 20260509172252 | 55 | 241 | 0.0 | 0.0 | 0.00 | 0.00 | 0.00 | 79 | 1018.5 |
| 20260509170752 | 56 | 244 | 0.0 | 0.0 | 0.00 | 0.00 | 0.00 | 75 | 1018.2 |
| 20260509165249 | 57 | 246 | 0.0 | 0.0 | 0.00 | 0.00 | 0.00 | 73 | 1018.0 |
| 20260509163745 | 58 | 235 | 0.0 | 0.0 | 0.00 | 0.00 | 0.00 | 71 | 1018.0 |
| 20260509162244 | 59 | 195 | 0.0 | 0.0 | 0.00 | 0.00 | 0.00 | 71 | 1017.9 |
| 20260509160744 | 59 | 181 | 0.0 | 1.0 | 0.00 | 0.00 | 0.00 | 70 | 1017.8 |
| 20260509155245 | 59 | 240 | 0.0 | 0.0 | 0.00 | 0.00 | 0.00 | 70 | 1017.7 |
| 20260509153741 | 61 | 221 | 0.0 | 0.0 | 0.00 | 0.00 | 0.00 | 67 | 1017.8 |
| 20260509152242 | 63 | 270 | 0.0 | 0.0 | 0.00 | 0.00 | 0.00 | 62 | 1017.8 |
| 20260509150739 | 64 | 257 | 0.0 | 1.0 | 0.00 | 0.00 | 0.00 | 60 | 1017.5 |
| 20260509145239 | 65 | 274 | 0.0 | 1.0 | 0.00 | 0.00 | 0.00 | 57 | 1017.7 |
| 20260509143736 | 66 | 242 | 1.0 | 1.0 | 0.00 | 0.00 | 0.00 | 56 | 1017.4 |
| 20260509142231 | 67 | 262 | 1.0 | 1.0 | 0.00 | 0.00 | 0.00 | 55 | 1017.4 |
| 20260509140727 | 68 | 24 | 2.0 | 2.0 | 0.00 | 0.00 | 0.00 | 53 | 1017.5 |
| 20260509135226 | 69 | 56 | 1.0 | 2.0 | 0.00 | 0.00 | 0.00 | 52 | 1017.4 |
| 20260509133723 | 71 | 277 | 1.0 | 1.0 | 0.00 | 0.00 | 0.00 | 49 | 1017.4 |
| 20260509132222 | 71 | 280 | 3.0 | 5.0 | 0.00 | 0.00 | 0.00 | 49 | 1017.5 |
| 20260509130722 | 72 | 333 | 3.0 | 5.0 | 0.00 | 0.00 | 0.00 | 48 | 1017.7 |
| 20260509125218 | 71 | 324 | 1.0 | 1.0 | 0.00 | 0.00 | 0.00 | 50 | 1017.8 |
| 20260509123715 | 71 | 286 | 1.0 | 2.0 | 0.00 | 0.00 | 0.00 | 50 | 1017.9 |
| 20260509122210 | 70 | 18 | 2.0 | 2.0 | 0.00 | 0.00 | 0.00 | 49 | 1017.9 |
| 20260509120709 | 71 | 8 | 4.0 | 6.0 | 0.00 | 0.00 | 0.00 | 50 | 1018.1 |
| 20260509115207 | 69 | 287 | 4.0 | 5.0 | 0.00 | 0.00 | 0.00 | 51 | 1018.2 |
| 20260509113702 | 70 | 294 | 1.0 | 1.0 | 0.00 | 0.00 | 0.00 | 50 | 1018.1 |
| 20260509112157 | 70 | 354 | 0.0 | 1.0 | 0.00 | 0.00 | 0.00 | 51 | 1018.5 |
| 20260509110654 | 71 | 43 | 2.0 | 3.0 | 0.00 | 0.00 | 0.00 | 49 | 1018.7 |
| 20260509105152 | 70 | 294 | 1.0 | 1.0 | 0.00 | 0.00 | 0.00 | 50 | 1018.9 |
| 20260509103650 | 69 | 44 | 1.0 | 1.0 | 0.00 | 0.00 | 0.00 | 49 | 1019.3 |
| 20260509102148 | 69 | 315 | 3.0 | 3.0 | 0.00 | 0.00 | 0.00 | 51 | 1019.5 |
| 20260509100644 | 67 | 307 | 4.0 | 6.0 | 0.00 | 0.00 | 0.00 | 54 | 1019.6 |
| 20260509095141 | 68 | 351 | 1.0 | 2.0 | 0.00 | 0.00 | 0.00 | 53 | 1020.0 |
| 20260509093638 | 66 | 271 | 1.0 | 1.0 | 0.00 | 0.00 | 0.00 | 57 | 1020.5 |
| 20260509092137 | 64 | 67 | 1.0 | 1.0 | 0.00 | 0.00 | 0.00 | 58 | 1020.5 |
| 20260509090634 | 64 | 341 | 1.0 | 1.0 | 0.00 | 0.00 | 0.00 | 59 | 1020.9 |
| 20260509085130 | 61 | 297 | 1.0 | 1.0 | 0.00 | 0.00 | 0.00 | 62 | 1021.1 |
| 20260509083628 | 64 | 149 | 1.0 | 1.0 | 0.00 | 0.00 | 0.00 | 60 | 1021.2 |
| 20260509082124 | 61 | 48 | 4.0 | 5.0 | 0.00 | 0.00 | 0.00 | 60 | 1021.3 |
| 20260509080623 | 60 | 4 | 3.0 | 5.0 | 0.00 | 0.00 | 0.00 | 63 | 1021.5 |
| 20260509075121 | 59 | 31 | 4.0 | 7.0 | 0.00 | 0.00 | 0.00 | 64 | 1021.6 |
| 20260509073617 | 58 | 59 | 1.0 | 1.0 | 0.00 | 0.00 | 0.00 | 68 | 1021.6 |
| 20260509072113 | 57 | 93 | 2.0 | 3.0 | 0.00 | 0.00 | 0.00 | 71 | 1021.6 |
| 20260509070610 | 56 | 61 | 0.0 | 0.0 | 0.00 | 0.00 | 0.00 | 73 | 1021.5 |
| 20260509065110 | 57 | 29 | 1.0 | 2.0 | 0.00 | 0.00 | 0.00 | 71 | 1021.2 |
| 20260509063608 | 55 | 199 | 1.0 | 1.0 | 0.00 | 0.00 | 0.00 | 75 | 1020.8 |
| 20260509062104 | 55 | 114 | 0.0 | 0.0 | 0.00 | 0.00 | 0.00 | 75 | 1020.6 |
| 20260509060602 | 50 | 258 | 0.0 | 0.0 | 0.00 | 0.00 | 0.00 | 84 | 1020.6 |
| 20260509055101 | 52 | 234 | 0.0 | 0.0 | 0.00 | 0.00 | 0.00 | 81 | 1020.5 |
| 20260509053600 | 47 | 251 | 0.0 | 0.0 | 0.00 | 0.00 | 0.00 | 90 | 1020.4 |
| 20260509052058 | 42 | 239 | 0.0 | 0.0 | 0.00 | 0.00 | 0.00 | 99 | 1020.1 |
| 20260509050555 | 39 | 234 | 0.0 | 0.0 | 0.00 | 0.00 | 0.00 | 99 | 1020.3 |
| 20260509045052 | 39 | 242 | 0.0 | 0.0 | 0.00 | 0.00 | 0.00 | 99 | 1020.0 |
| 20260509043549 | 39 | 228 | 0.0 | 0.0 | 0.00 | 0.00 | 0.00 | 99 | 1020.0 |
| 20260509042049 | 39 | 223 | 0.0 | 0.0 | 0.00 | 0.00 | 0.00 | 99 | 1019.8 |
| 20260509040547 | 39 | 241 | 0.0 | 0.0 | 0.00 | 0.00 | 0.00 | 99 | 1019.7 |
| 20260509035043 | 39 | 193 | 0.0 | 1.0 | 0.00 | 0.00 | 0.00 | 99 | 1019.6 |
| 20260509033541 | 39 | 212 | 1.0 | 1.0 | 0.00 | 0.00 | 0.00 | 99 | 1019.7 |
| 20260509032038 | 39 | 229 | 0.0 | 0.0 | 0.00 | 0.00 | 0.00 | 99 | 1019.7 |
| 20260509030536 | 39 | 240 | 0.0 | 0.0 | 0.00 | 0.00 | 0.00 | 99 | 1019.6 |
| 20260509025036 | 39 | 235 | 0.0 | 0.0 | 0.00 | 0.00 | 0.00 | 99 | 1019.6 |
| 20260509023532 | 39 | 211 | 1.0 | 1.0 | 0.00 | 0.00 | 0.00 | 99 | 1019.4 |
| 20260509022029 | 40 | 160 | 0.0 | 0.0 | 0.00 | 0.00 | 0.00 | 99 | 1019.8 |
| 20260509020527 | 40 | 189 | 1.0 | 1.0 | 0.00 | 0.00 | 0.00 | 99 | 1019.6 |
| 20260509015025 | 40 | 238 | 0.0 | 0.0 | 0.00 | 0.00 | 0.00 | 99 | 1019.8 |
| 20260509013521 | 40 | 237 | 0.0 | 0.0 | 0.00 | 0.00 | 0.00 | 99 | 1019.6 |
| 20260509012016 | 40 | 244 | 0.0 | 0.0 | 0.00 | 0.00 | 0.00 | 99 | 1019.6 |
| 20260509010515 | 40 | 215 | 1.0 | 1.0 | 0.00 | 0.00 | 0.00 | 99 | 1019.6 |
| 20260509005015 | 39 | 238 | 0.0 | 0.0 | 0.00 | 0.00 | 0.00 | 99 | 1019.7 |
| 20260509003513 | 40 | 243 | 0.0 | 0.0 | 0.00 | 0.00 | 0.00 | 99 | 1019.6 |
| 20260509002010 | 41 | 238 | 0.0 | 0.0 | 0.00 | 0.00 | 0.00 | 99 | 1019.8 |
| 20260509000508 | 41 | 238 | 0.0 | 0.0 | 0.00 | 0.00 | 0.00 | 99 | 1019.7 |
| 20260508235008 | 41 | 231 | 0.0 | 0.0 | 0.00 | 0.00 | 0.00 | 99 | 1019.7 |
| 20260508233509 | 41 | 244 | 0.0 | 0.0 | 0.00 | 0.00 | 0.00 | 99 | 1020.1 |
| 20260508232005 | 41 | 224 | 0.0 | 0.0 | 0.00 | 0.00 | 0.00 | 99 | 1019.6 |
| 20260508230502 | 41 | 241 | 0.0 | 0.0 | 0.00 | 0.00 | 0.00 | 99 | 1019.7 |
| 20260508224958 | 41 | 239 | 0.0 | 0.0 | 0.00 | 0.00 | 0.00 | 99 | 1019.7 |
| 20260508223457 | 41 | 243 | 0.0 | 0.0 | 0.00 | 0.00 | 0.00 | 98 | 1019.7 |
| 20260508221953 | 42 | 244 | 0.0 | 0.0 | 0.00 | 0.00 | 0.00 | 99 | 1019.5 |
| 20260508220448 | 42 | 246 | 0.0 | 0.0 | 0.00 | 0.00 | 0.00 | 98 | 1019.6 |
| 20260508214944 | 43 | 233 | 0.0 | 0.0 | 0.00 | 0.00 | 0.00 | 98 | 1019.6 |
| 20260508213441 | 43 | 232 | 0.0 | 0.0 | 0.00 | 0.00 | 0.00 | 98 | 1019.7 |
| 20260508211941 | 43 | 240 | 0.0 | 0.0 | 0.00 | 0.00 | 0.00 | 97 | 1019.6 |
| 20260508210436 | 44 | 242 | 0.0 | 0.0 | 0.00 | 0.00 | 0.00 | 97 | 1019.8 |
| 20260508204932 | 44 | 234 | 0.0 | 0.0 | 0.00 | 0.00 | 0.00 | 96 | 1019.8 |
| 20260508203427 | 45 | 235 | 0.0 | 0.0 | 0.00 | 0.00 | 0.00 | 96 | 1020.1 |
| 20260508201923 | 45 | 223 | 0.0 | 0.0 | 0.00 | 0.00 | 0.00 | 96 | 1020.3 |